createdAt,value
2018-05-17T00:02:18.906Z,34.20
2018-05-17T00:04:47.113Z,37.77
2018-05-17T00:07:14.550Z,35.23
2018-05-17T00:09:42.003Z,34.33
2018-05-17T00:12:10.206Z,35.87
2018-05-17T00:14:38.423Z,36.80
2018-05-17T00:17:05.861Z,32.57
2018-05-17T00:19:33.315Z,32.80
2018-05-17T00:22:00.745Z,27.97
2018-05-17T00:24:28.190Z,35.33
2018-05-17T00:26:55.630Z,37.63
2018-05-17T00:29:23.079Z,48.47
2018-05-17T00:31:50.513Z,36.20
2018-05-17T00:34:17.970Z,42.30
2018-05-17T00:36:46.164Z,61.07
2018-05-17T00:39:14.385Z,37.40
2018-05-17T00:41:41.819Z,33.83
2018-05-17T00:44:09.286Z,34.00
2018-05-17T00:46:37.485Z,34.73
2018-05-17T00:49:04.935Z,28.37
2018-05-17T00:51:32.370Z,36.20
2018-05-17T00:53:59.816Z,33.07
2018-05-17T00:56:27.255Z,29.23
2018-05-17T00:58:55.469Z,30.90
2018-05-17T01:01:23.670Z,31.10
2018-05-17T01:03:51.114Z,37.03
2018-05-17T01:06:18.559Z,42.30
2018-05-17T01:08:45.997Z,34.50
2018-05-17T01:11:14.202Z,39.57
2018-05-17T01:13:42.410Z,37.40
2018-05-17T01:16:10.615Z,39.03
2018-05-17T01:18:38.826Z,37.60
2018-05-17T01:21:06.262Z,36.80
2018-05-17T01:23:33.705Z,41.93
2018-05-17T01:26:01.142Z,39.20
2018-05-17T01:28:28.586Z,42.03
2018-05-17T01:30:56.021Z,50.07
2018-05-17T01:33:23.466Z,34.83
2018-05-17T01:35:50.901Z,33.43
2018-05-17T01:38:26.997Z,35.27
2018-05-17T01:40:55.197Z,32.53
2018-05-17T01:43:23.406Z,30.47
2018-05-17T01:45:50.843Z,27.40
2018-05-17T01:48:18.278Z,28.77
2018-05-17T01:50:45.726Z,33.50
2018-05-17T01:53:13.161Z,31.63
2018-05-17T01:55:40.616Z,30.40
2018-05-17T01:58:08.050Z,31.00
2018-05-17T02:00:35.497Z,32.97
2018-05-17T02:03:02.937Z,29.70
2018-05-17T02:05:30.385Z,22.37
2018-05-17T02:07:57.827Z,32.17
2018-05-17T02:10:26.043Z,23.70
2018-05-17T02:12:53.479Z,27.13
2018-05-17T02:15:20.922Z,24.53
2018-05-17T02:17:48.369Z,30.13
2018-05-17T02:20:16.583Z,22.67
2018-05-17T02:22:44.018Z,22.90
2018-05-17T02:25:11.462Z,26.40
2018-05-17T02:27:38.901Z,31.90
2018-05-17T02:30:07.114Z,29.57
2018-05-17T02:32:35.322Z,24.70
2018-05-17T02:35:02.766Z,32.93
2018-05-17T02:37:30.211Z,26.70
2018-05-17T02:39:57.666Z,25.17
2018-05-17T02:42:25.873Z,27.33
2018-05-17T02:44:53.315Z,34.53
2018-05-17T02:47:20.750Z,32.57
2018-05-17T02:49:48.193Z,28.00
2018-05-17T02:52:15.639Z,29.40
2018-05-17T02:54:43.085Z,35.00
2018-05-17T02:57:10.526Z,30.73
2018-05-17T02:59:37.966Z,27.40
2018-05-17T03:02:05.409Z,38.83
2018-05-17T03:04:33.631Z,40.30
2018-05-17T03:07:01.837Z,31.03
2018-05-17T03:09:29.277Z,33.30
2018-05-17T03:11:56.726Z,31.00
2018-05-17T03:14:24.175Z,43.97
2018-05-17T03:16:52.379Z,33.03
2018-05-17T03:19:19.826Z,32.50
2018-05-17T03:21:47.272Z,36.80
2018-05-17T03:24:14.715Z,34.40
2018-05-17T03:26:42.956Z,32.73
2018-05-17T03:29:10.365Z,51.27
2018-05-17T03:31:37.807Z,39.10
2018-05-17T03:34:05.251Z,37.83
2018-05-17T03:36:33.458Z,41.57
2018-05-17T03:39:00.898Z,36.30
2018-05-17T03:41:28.342Z,27.50
2018-05-17T03:43:55.787Z,33.60
2018-05-17T03:46:24.001Z,32.87
2018-05-17T03:48:52.205Z,43.60
2018-05-17T03:51:19.654Z,30.47
2018-05-17T03:53:47.090Z,41.00
2018-05-17T03:56:14.547Z,29.40
2018-05-17T03:58:42.741Z,29.50
2018-05-17T04:01:22.963Z,39.43
2018-05-17T04:04:02.169Z,43.67
2018-05-17T04:06:44.214Z,39.50
2018-05-17T04:09:11.646Z,46.90
2018-05-17T04:11:39.937Z,50.00
2018-05-17T04:14:07.302Z,48.33
2018-05-17T04:16:34.750Z,47.00
2018-05-17T04:19:02.202Z,59.65
2018-05-17T04:21:29.656Z,58.40
2018-05-17T04:23:57.094Z,54.70
2018-05-17T04:26:24.541Z,60.73
2018-05-17T04:28:51.998Z,61.47
2018-05-17T04:31:19.446Z,60.75
2018-05-17T04:33:46.885Z,62.05
2018-05-17T04:36:14.333Z,50.93
2018-05-17T04:38:42.539Z,37.67
2018-05-17T06:07:01.738Z,36.20
2018-05-17T06:09:29.190Z,36.45
2018-05-17T06:11:56.640Z,36.70
2018-05-17T06:14:24.078Z,37.53
2018-05-17T06:16:51.526Z,30.10
2018-05-17T07:42:43.690Z,15.70
2018-05-17T09:57:43.634Z,8.90
2018-05-17T10:00:16.635Z,9.43
2018-05-17T10:02:44.078Z,8.80
2018-05-17T10:05:11.526Z,8.20
2018-05-17T10:07:38.962Z,7.33
2018-05-17T10:10:07.170Z,6.40
2018-05-17T10:12:34.615Z,6.07
2018-05-17T10:15:02.053Z,7.00
2018-05-17T10:17:29.493Z,6.20
2018-05-17T10:19:57.706Z,8.50
2018-05-17T10:22:25.914Z,6.23
2018-05-17T10:24:53.350Z,7.10
2018-05-17T10:27:20.794Z,7.33
2018-05-17T10:29:48.228Z,7.57
2018-05-17T10:32:15.665Z,8.13
2018-05-17T10:34:43.122Z,8.10
2018-05-17T10:37:10.573Z,8.55
2018-05-17T10:39:38.787Z,8.55
2018-05-17T10:42:06.261Z,8.30
2018-05-17T10:44:33.670Z,8.15
2018-05-17T10:47:01.114Z,8.70
2018-05-17T10:49:28.554Z,9.00
2018-05-17T10:51:55.990Z,9.40
2018-05-17T10:54:24.227Z,10.48
2018-05-17T10:56:51.666Z,10.38
2018-05-17T10:59:19.870Z,9.68
2018-05-17T11:01:48.073Z,9.10
2018-05-17T11:04:15.529Z,9.50
2018-05-17T11:06:42.958Z,9.93
2018-05-17T11:09:10.406Z,10.57
2018-05-17T11:11:38.679Z,9.30
2018-05-17T11:14:06.075Z,8.80
2018-05-17T11:16:33.517Z,10.07
2018-05-17T11:19:00.974Z,10.48
2018-05-17T11:21:28.425Z,12.02
2018-05-17T11:23:56.650Z,12.90
2018-05-17T11:26:24.106Z,11.98
2018-05-17T11:28:52.322Z,11.00
2018-05-17T11:31:19.774Z,11.70
2018-05-17T11:33:47.225Z,13.65
2018-05-17T11:36:15.448Z,12.77
2018-05-17T11:38:42.907Z,12.88
2018-05-17T11:41:10.350Z,12.05
2018-05-17T11:43:37.798Z,12.80
2018-05-17T11:46:05.242Z,13.23
2018-05-17T11:48:32.699Z,12.10
2018-05-17T11:51:00.153Z,11.85
2018-05-17T11:53:27.611Z,12.75
2018-05-17T11:55:55.051Z,13.10
2018-05-17T11:58:22.497Z,13.98
2018-05-17T12:00:50.712Z,16.33
2018-05-17T12:03:18.931Z,14.97
2018-05-17T12:27:52.542Z,20.33
2018-05-17T12:30:19.982Z,20.20
2018-05-17T12:32:47.426Z,19.87
2018-05-17T12:35:14.878Z,17.83
2018-05-17T12:37:42.326Z,20.93
2018-05-17T12:40:09.779Z,33.17
2018-05-17T12:42:37.230Z,26.30
2018-05-17T12:45:04.686Z,28.50
2018-05-17T12:47:32.130Z,28.05
2018-05-17T12:50:00.348Z,27.50
2018-05-17T12:52:27.789Z,27.67
2018-05-17T12:54:55.230Z,31.03
2018-05-17T12:57:22.676Z,29.37
2018-05-17T12:59:50.890Z,28.70
2018-05-17T13:02:18.334Z,29.27
2018-05-17T13:04:45.779Z,34.23
2018-05-17T13:07:13.341Z,28.47
2018-05-17T13:09:41.438Z,26.97
2018-05-17T13:12:08.882Z,27.67
2018-05-17T13:14:36.335Z,23.87
2018-05-17T13:19:30.781Z,24.67
2018-05-17T13:21:58.227Z,28.40
2018-05-17T13:36:42.446Z,32.17
2018-05-17T13:39:09.893Z,30.45
2018-05-17T13:41:37.330Z,25.10
2018-05-17T13:44:04.778Z,33.20
2018-05-17T13:46:32.222Z,28.40
2018-05-17T13:51:27.426Z,25.13
2018-05-17T13:53:54.886Z,32.00
2018-05-17T13:56:22.326Z,28.75
2018-05-17T13:58:49.774Z,31.42
2018-05-17T14:01:17.599Z,38.00
2018-05-17T14:03:45.035Z,29.10
2018-05-17T14:06:12.479Z,31.50
2018-05-17T14:08:39.921Z,28.13
2018-05-17T14:11:07.365Z,37.93
2018-05-17T14:13:35.574Z,44.23
2018-05-17T14:16:03.786Z,29.70
2018-05-17T14:18:31.226Z,30.60
2018-05-17T14:20:58.674Z,29.17
2018-05-17T14:23:26.118Z,25.03
2018-05-17T14:25:54.331Z,29.20
2018-05-17T14:28:21.770Z,35.23
2018-05-17T14:30:49.218Z,31.97
2018-05-17T14:33:16.658Z,28.50
2018-05-17T14:35:44.875Z,40.73
2018-05-17T14:38:12.314Z,30.73
2018-05-17T14:40:39.766Z,28.40
2018-05-17T14:43:07.202Z,35.63
2018-05-17T14:45:35.418Z,36.03
2018-05-17T14:48:02.862Z,31.67
2018-05-17T14:50:30.307Z,31.87
2018-05-17T14:52:57.751Z,49.67
2018-05-17T14:55:25.971Z,43.77
2018-05-17T14:57:53.414Z,38.23
2018-05-17T15:00:20.867Z,34.73
2018-05-17T15:02:48.310Z,30.70
2018-05-17T15:05:15.762Z,28.97
2018-05-17T15:07:43.206Z,32.70
2018-05-17T15:10:10.654Z,28.50
2018-05-17T15:12:38.095Z,31.13
2018-05-17T15:15:05.547Z,23.30
2018-05-17T15:17:32.990Z,30.23
2018-05-17T15:20:00.446Z,32.10
2018-05-17T15:22:27.882Z,29.37
2018-05-17T15:24:55.334Z,34.95
2018-05-17T15:27:22.878Z,33.35
2018-05-17T15:34:44.990Z,39.73
2018-05-17T15:37:12.444Z,37.67
2018-05-17T15:39:39.886Z,37.23
2018-05-17T15:42:07.335Z,36.30
2018-05-17T15:44:34.778Z,26.80
2018-05-17T15:47:02.227Z,32.33
2018-05-17T15:49:29.663Z,36.90
2018-05-17T15:51:57.882Z,42.70
2018-05-17T15:54:25.322Z,37.90
2018-05-17T15:56:52.770Z,36.07
2018-05-17T15:59:20.206Z,38.97
2018-05-17T16:01:47.654Z,44.27
2018-05-17T16:04:15.098Z,42.50
2018-05-17T16:06:42.551Z,45.23
2018-05-17T16:09:10.927Z,40.23
2018-05-17T16:11:38.382Z,39.33
2018-05-17T16:14:05.822Z,36.43
2018-05-17T16:16:33.262Z,41.47
2018-05-17T16:19:00.698Z,44.13
2018-05-17T16:21:28.914Z,36.60
2018-05-17T17:44:24.996Z,42.23
2018-05-17T17:46:52.446Z,33.13
2018-05-17T17:54:13.880Z,39.33
2018-05-17T17:56:41.331Z,36.57
2018-05-17T17:59:08.779Z,48.30
2018-05-17T18:01:36.228Z,50.30
2018-05-17T18:04:03.667Z,43.33
2018-05-17T18:06:31.874Z,38.87
2018-05-17T18:08:59.326Z,46.00
2018-05-17T18:11:26.771Z,49.27
2018-05-17T18:13:54.214Z,43.63
2018-05-17T18:16:21.662Z,42.40
2018-05-17T18:36:00.386Z,50.43
2018-05-17T18:38:27.818Z,50.27
2018-05-17T18:40:55.262Z,51.90
2018-05-17T18:43:22.713Z,47.90
2018-05-17T18:45:50.151Z,60.93
2018-05-17T19:07:54.326Z,59.83
2018-05-17T19:10:22.534Z,56.97
2018-05-17T19:12:50.746Z,59.28
2018-05-17T19:15:18.194Z,58.58
2018-05-17T19:17:45.650Z,62.60
2018-05-17T19:20:13.094Z,65.25
2018-05-17T19:22:40.558Z,60.78
2018-05-17T19:25:08.778Z,60.07
2018-05-17T19:27:36.220Z,64.80
2018-05-17T19:30:03.654Z,61.87
2018-05-17T19:32:31.117Z,62.65
2018-05-17T19:34:59.339Z,69.65
2018-05-17T19:37:26.839Z,59.67
2018-05-17T19:39:55.004Z,56.25
2018-05-17T19:42:23.222Z,61.60
2018-05-17T19:44:50.671Z,54.43
2018-05-17T19:54:40.634Z,61.03
2018-05-17T19:57:08.837Z,60.83
2018-05-17T19:59:36.365Z,72.87
2018-05-17T20:02:03.713Z,69.43
2018-05-17T20:04:31.173Z,69.37
2018-05-17T20:06:59.399Z,80.70
2018-05-17T20:09:26.848Z,67.55
2018-05-17T20:11:55.054Z,70.05
2018-05-17T20:14:23.270Z,69.87
2018-05-17T20:16:50.718Z,73.85
2018-05-17T20:19:18.159Z,76.50
2018-05-17T20:21:45.620Z,70.63
2018-05-17T20:24:13.815Z,76.00
2018-05-17T20:26:42.039Z,67.45
2018-05-17T20:29:09.484Z,72.37
2018-05-17T20:31:36.938Z,69.82
2018-05-17T20:34:04.382Z,64.65
2018-05-17T20:36:31.826Z,73.72
2018-05-17T20:38:59.274Z,71.87
2018-05-17T20:41:26.718Z,75.05
2018-05-17T20:43:54.926Z,74.47
2018-05-17T20:46:22.372Z,77.27
2018-05-17T20:48:49.809Z,68.20
2018-05-17T20:51:17.256Z,67.50
2018-05-17T20:53:45.465Z,56.13
2018-05-17T20:56:13.678Z,64.13
2018-05-17T20:58:41.130Z,68.83
2018-05-17T21:01:09.338Z,75.60
2018-05-17T21:03:37.550Z,63.57
2018-05-17T21:06:05.762Z,61.23
2018-05-17T21:08:33.976Z,74.73
2018-05-17T21:11:01.415Z,70.33
2018-05-17T21:13:28.861Z,74.23
2018-05-17T21:15:56.298Z,72.47
2018-05-17T21:18:24.514Z,72.53
2018-05-17T21:25:47.483Z,67.40
2018-05-17T21:28:15.699Z,70.33
2018-05-17T21:30:43.139Z,79.23
2018-05-17T21:33:10.581Z,83.87
2018-05-17T21:35:38.031Z,79.10
2018-05-17T21:38:06.260Z,64.53
2018-05-17T21:40:33.709Z,72.43
2018-05-17T21:43:01.922Z,78.90
2018-05-17T21:45:30.138Z,66.32
2018-05-17T21:47:57.581Z,74.30
2018-05-17T21:50:25.019Z,79.20
2018-05-17T21:52:52.482Z,74.45
2018-05-17T21:55:19.926Z,66.45
2018-05-17T21:57:47.380Z,78.97
2018-05-17T22:00:14.826Z,68.60
2018-05-17T22:02:42.278Z,68.07
2018-05-17T22:05:10.493Z,76.22
2018-05-17T22:07:39.651Z,74.72
2018-05-17T22:10:06.998Z,82.32
2018-05-17T22:12:35.218Z,71.55
2018-05-17T22:15:02.671Z,63.20
2018-05-17T22:17:30.895Z,70.28
2018-05-17T22:19:58.338Z,75.00
2018-05-17T22:22:25.790Z,71.47
2018-05-17T22:24:53.230Z,75.30
2018-05-17T22:27:21.442Z,68.60
2018-05-17T22:29:48.894Z,79.68
2018-05-17T22:32:16.350Z,73.15
2018-05-17T22:34:43.799Z,76.40
2018-05-17T22:37:11.243Z,75.12
2018-05-17T22:39:38.682Z,71.87
2018-05-17T22:42:06.134Z,83.25
2018-05-17T22:44:33.586Z,76.62
2018-05-17T22:47:01.022Z,76.75
2018-05-17T22:49:28.475Z,74.43
2018-05-17T22:51:56.605Z,77.70
2018-05-17T22:54:23.954Z,85.60
2018-05-17T22:57:03.361Z,79.30
2018-05-17T22:59:30.813Z,71.40
2018-05-17T23:01:58.258Z,68.32
2018-05-17T23:04:26.480Z,70.35
2018-05-17T23:06:53.922Z,70.37
2018-05-17T23:09:21.372Z,80.45
2018-05-17T23:11:48.811Z,84.10
2018-05-17T23:14:17.029Z,70.85
2018-05-17T23:16:45.235Z,79.45
2018-05-17T23:19:12.690Z,80.68
2018-05-17T23:21:40.894Z,82.28
2018-05-17T23:24:09.149Z,84.57
2018-05-17T23:26:36.569Z,81.45
2018-05-17T23:29:04.014Z,84.05
2018-05-17T23:31:31.462Z,73.45
2018-05-17T23:33:59.670Z,79.67
2018-05-17T23:36:27.106Z,81.07
2018-05-17T23:38:54.558Z,80.40
2018-05-17T23:41:33.922Z,74.22
2018-05-17T23:44:01.382Z,76.68
2018-05-17T23:46:28.826Z,83.60
2018-05-17T23:48:56.277Z,75.20
2018-05-17T23:51:23.718Z,73.13
2018-05-17T23:53:51.174Z,72.68
2018-05-17T23:56:18.623Z,79.65
2018-05-17T23:58:46.072Z,80.40
